Time;durP1;ratioP1;P1;durP2;ratioP2;P2;SDS_P1;SDS_P2;PMS_P1;PMS_P2;Temp;Humidity;BMP_temperature;BMP_pressure;BME280_temperature;BME280_humidity;BME280_pressure;Samples;Min_cycle;Max_cycle;Signal;HPM_P1;HPM_P2
2023/01/15 00:08:58;;;;;;;9.80;9.50;;;9.00;99.90;;;;;;6197211;23;20219;-88
2023/01/15 00:11:31;;;;;;;9.73;9.43;;;9.00;99.90;;;;;;6199532;23;20270;-86
2023/01/15 00:14:07;;;;;;;9.70;9.40;;;9.00;99.90;;;;;;6198707;23;20195;-87
2023/01/15 00:20:11;;;;;;;9.77;9.47;;;9.10;99.90;;;;;;6209687;22;20180;-87
2023/01/15 00:28:47;;;;;;;9.67;9.37;;;9.10;99.90;;;;;;6201109;23;20188;-88
2023/01/15 00:34:37;;;;;;;9.70;9.40;;;9.20;99.90;;;;;;6204002;23;20199;-88
2023/01/15 00:37:08;;;;;;;9.60;9.30;;;9.20;99.90;;;;;;6198491;23;20196;-87
2023/01/15 00:40:02;;;;;;;9.70;9.40;;;9.20;99.90;;;;;;6198864;23;20223;-87
2023/01/15 00:42:33;;;;;;;9.70;9.40;;;9.30;99.90;;;;;;6198579;23;20206;-87
2023/01/15 00:45:08;;;;;;;9.80;9.50;;;9.30;99.90;;;;;;6204580;22;20214;-84
2023/01/15 00:47:39;;;;;;;9.70;9.40;;;9.40;99.90;;;;;;6226640;23;20214;-83
2023/01/15 00:50:19;;;;;;;9.60;9.30;;;9.40;99.90;;;;;;6226888;23;20222;-84
2023/01/15 00:52:47;;;;;;;9.60;9.30;;;9.40;99.90;;;;;;6227107;23;21015;-84
2023/01/15 00:55:18;;;;;;;9.50;9.20;;;9.50;99.90;;;;;;6226522;22;20226;-84
2023/01/15 00:57:46;;;;;;;9.60;9.30;;;9.50;99.90;;;;;;6227157;23;20218;-86
2023/01/15 01:00:15;;;;;;;9.40;9.10;;;9.50;99.90;;;;;;6226794;23;20208;-85
2023/01/15 01:02:44;;;;;;;9.60;9.30;;;9.60;99.90;;;;;;6226897;23;20198;-84
2023/01/15 01:05:17;;;;;;;9.60;9.30;;;9.60;99.90;;;;;;6234086;22;20195;-83
2023/01/15 01:07:44;;;;;;;9.57;9.27;;;9.60;99.90;;;;;;6238074;23;20202;-84
2023/01/15 01:10:13;;;;;;;9.87;9.57;;;9.60;99.90;;;;;;6230137;23;20250;-83
2023/01/15 01:12:42;;;;;;;9.70;9.40;;;9.70;99.90;;;;;;6229166;23;20211;-84
2023/01/15 01:15:13;;;;;;;9.53;9.23;;;9.70;99.90;;;;;;6228534;22;20211;-84
2023/01/15 01:17:43;;;;;;;9.80;9.50;;;9.70;99.90;;;;;;6227831;23;20206;-83
2023/01/15 01:20:22;;;;;;;9.70;9.40;;;9.80;99.90;;;;;;6227526;23;20195;-82
2023/01/15 01:22:51;;;;;;;9.73;9.43;;;9.80;99.90;;;;;;6227389;23;20197;-84
2023/01/15 01:25:20;;;;;;;9.97;9.67;;;9.80;99.90;;;;;;6242493;22;20234;-82
2023/01/15 01:27:49;;;;;;;9.83;9.53;;;9.80;99.90;;;;;;6251164;22;20205;-83
2023/01/15 01:30:19;;;;;;;9.87;9.57;;;9.90;99.90;;;;;;6251350;22;20183;-84
2023/01/15 01:32:48;;;;;;;9.53;9.23;;;9.90;99.90;;;;;;6250977;22;20195;-83
2023/01/15 01:35:26;;;;;;;9.63;9.33;;;10.00;99.90;;;;;;6237284;22;20223;-84
2023/01/15 01:37:56;;;;;;;9.63;9.33;;;10.00;99.90;;;;;;6231934;23;20201;-83
2023/01/15 01:40:25;;;;;;;9.87;9.57;;;10.00;99.90;;;;;;6230506;23;20195;-84
2023/01/15 01:42:56;;;;;;;9.70;9.40;;;10.00;99.90;;;;;;6229565;23;20247;-84
2023/01/15 01:45:37;;;;;;;9.70;9.40;;;10.10;99.90;;;;;;6228006;22;20206;-84
2023/01/15 01:48:11;;;;;;;9.80;9.50;;;10.10;99.90;;;;;;6227717;23;20191;-84
2023/01/15 01:50:50;;;;;;;9.70;9.40;;;10.20;99.90;;;;;;6226629;23;20199;-84
2023/01/15 01:53:22;;;;;;;9.80;9.50;;;10.20;99.90;;;;;;6226990;23;20195;-84
2023/01/15 01:55:50;;;;;;;9.70;9.40;;;10.20;99.90;;;;;;6226766;22;20273;-84
2023/01/15 01:58:20;;;;;;;9.60;9.30;;;10.20;99.90;;;;;;6226438;23;20191;-84
2023/01/15 02:00:56;;;;;;;9.70;9.40;;;10.20;99.90;;;;;;6226672;23;20206;-85
2023/01/15 02:03:32;;;;;;;9.80;9.50;;;10.20;99.90;;;;;;6226217;23;20221;-84
2023/01/15 02:06:23;;;;;;;9.80;9.50;;;10.30;99.90;;;;;;6226120;22;20225;-83
2023/01/15 02:08:51;;;;;;;9.70;9.40;;;10.30;99.90;;;;;;6224657;23;20187;-85
2023/01/15 02:11:22;;;;;;;9.90;9.60;;;10.30;99.90;;;;;;6225136;23;20206;-85
2023/01/15 02:13:58;;;;;;;9.77;9.47;;;10.30;99.90;;;;;;6225699;23;20191;-85
2023/01/15 02:16:37;;;;;;;9.70;9.40;;;10.40;99.90;;;;;;6227026;22;20199;-85
2023/01/15 02:19:23;;;;;;;9.90;9.60;;;10.40;99.90;;;;;;6226414;23;20191;-85
2023/01/15 02:22:04;;;;;;;10.00;9.70;;;10.40;99.90;;;;;;6225014;23;20191;-84
2023/01/15 02:24:49;;;;;;;10.03;9.73;;;10.40;99.90;;;;;;6225426;22;20226;-85
2023/01/15 02:27:27;;;;;;;9.80;9.50;;;10.40;99.90;;;;;;6225218;23;20205;-85
2023/01/15 02:30:09;;;;;;;10.00;9.70;;;10.40;99.90;;;;;;6225059;23;20265;-83
2023/01/15 02:32:46;;;;;;;9.90;9.60;;;10.40;99.90;;;;;;6225237;23;20198;-83
2023/01/15 02:35:23;;;;;;;10.07;9.77;;;10.40;99.90;;;;;;6226128;22;20280;-83
2023/01/15 02:37:54;;;;;;;9.97;9.67;;;10.40;99.90;;;;;;6225427;23;20238;-85
2023/01/15 02:40:29;;;;;;;10.17;9.87;;;10.40;99.90;;;;;;6225683;23;20194;-84
2023/01/15 02:43:08;;;;;;;9.87;9.57;;;10.40;99.90;;;;;;6225824;23;20191;-85
2023/01/15 02:45:40;;;;;;;10.20;9.90;;;10.40;99.90;;;;;;6226254;22;20210;-83
2023/01/15 02:48:18;;;;;;;9.87;9.57;;;10.40;99.90;;;;;;6226079;23;20215;-83
2023/01/15 02:50:54;;;;;;;10.07;9.77;;;10.40;99.90;;;;;;6230175;23;20190;-84
2023/01/15 02:56:19;;;;;;;10.13;9.83;;;10.40;99.90;;;;;;6225807;22;20198;-84
2023/01/15 02:58:57;;;;;;;10.20;9.90;;;10.40;99.90;;;;;;6244647;23;20190;-84
2023/01/15 03:04:22;;;;;;;10.00;9.70;;;10.40;99.90;;;;;;6245399;22;20195;-84
2023/01/15 03:09:39;;;;;;;10.00;9.70;;;10.40;99.90;;;;;;6247822;22;20201;-83
2023/01/15 03:12:17;;;;;;;10.00;9.70;;;10.50;99.90;;;;;;6245953;22;20201;-82
2023/01/15 03:15:07;;;;;;;10.00;9.70;;;10.50;99.90;;;;;;6250766;22;20175;-80
2023/01/15 03:17:45;;;;;;;10.07;9.77;;;10.50;99.90;;;;;;6234167;23;20191;-83
2023/01/15 03:20:22;;;;;;;10.00;9.70;;;10.50;99.90;;;;;;6233409;23;20191;-82
2023/01/15 03:23:00;;;;;;;9.87;9.57;;;10.50;99.90;;;;;;6241277;23;20191;-83
2023/01/15 03:25:35;;;;;;;10.17;9.87;;;10.60;99.90;;;;;;6245954;22;20195;-83
2023/01/15 03:28:09;;;;;;;9.80;9.50;;;10.60;99.90;;;;;;6244482;23;20200;-83
2023/01/15 03:30:46;;;;;;;10.00;9.70;;;10.60;99.90;;;;;;6240011;23;20206;-83
2023/01/15 03:33:16;;;;;;;10.10;9.80;;;10.70;99.90;;;;;;6232347;23;20250;-83
2023/01/15 03:35:57;;;;;;;10.10;9.80;;;10.70;99.90;;;;;;6230672;22;20269;-83
2023/01/15 03:41:19;;;;;;;10.00;9.70;;;10.80;99.90;;;;;;6228904;23;20198;-84
2023/01/15 03:43:58;;;;;;;10.20;9.90;;;10.80;99.90;;;;;;6231664;23;20201;-85
2023/01/15 03:46:55;;;;;;;10.30;10.00;;;10.80;99.90;;;;;;6229322;22;20203;-85
2023/01/15 03:49:41;;;;;;;10.30;10.00;;;10.80;99.90;;;;;;6228996;23;20231;-84
2023/01/15 03:52:18;;;;;;;10.10;9.80;;;10.80;99.90;;;;;;6228941;23;20211;-84
2023/01/15 03:54:58;;;;;;;9.97;9.67;;;10.80;99.90;;;;;;6229436;22;20230;-84
2023/01/15 03:57:37;;;;;;;10.30;10.00;;;10.80;99.90;;;;;;6232751;23;20254;-85
2023/01/15 04:00:13;;;;;;;10.20;9.90;;;10.80;99.90;;;;;;6246901;22;20191;-84
2023/01/15 04:03:02;;;;;;;10.10;9.80;;;10.80;99.90;;;;;;6251298;22;20186;-83
2023/01/15 04:05:32;;;;;;;10.10;9.80;;;10.70;99.90;;;;;;6246992;22;20182;-83
2023/01/15 04:08:01;;;;;;;9.90;9.60;;;10.60;99.90;;;;;;6242800;22;20226;-84
2023/01/15 04:10:29;;;;;;;9.97;9.67;;;10.60;99.90;;;;;;6235127;23;20210;-85
2023/01/15 04:12:59;;;;;;;10.17;9.87;;;10.50;99.90;;;;;;6231106;23;20199;-85
2023/01/15 04:15:28;;;;;;;9.77;9.47;;;10.40;99.90;;;;;;6230788;22;20210;-84
2023/01/15 04:17:59;;;;;;;9.83;9.53;;;10.30;99.90;;;;;;6231871;23;20199;-84
2023/01/15 04:20:26;;;;;;;9.50;9.20;;;10.20;99.90;;;;;;6228758;23;20198;-85
2023/01/15 04:25:46;;;;;;;9.70;9.40;;;10.10;99.90;;;;;;6227555;22;20207;-85
2023/01/15 04:28:14;;;;;;;9.70;9.40;;;10.10;99.90;;;;;;6229062;23;20254;-84
2023/01/15 04:30:42;;;;;;;9.90;9.60;;;10.10;99.90;;;;;;6227743;23;20252;-82
2023/01/15 04:33:23;;;;;;;9.90;9.60;;;10.10;99.90;;;;;;6229740;23;20195;-83
2023/01/15 04:35:51;;;;;;;9.70;9.40;;;10.10;99.90;;;;;;6230013;22;20254;-85
2023/01/15 04:38:19;;;;;;;9.80;9.50;;;10.00;99.90;;;;;;6228301;23;20218;-84
2023/01/15 04:46:23;;;;;;;9.80;9.50;;;10.10;99.90;;;;;;6225867;22;20199;-85
2023/01/15 04:49:01;;;;;;;9.30;9.00;;;10.10;99.90;;;;;;6225860;23;20278;-85
2023/01/15 04:51:30;;;;;;;9.50;9.20;;;10.10;99.90;;;;;;6225817;23;20250;-85
2023/01/15 04:54:00;;;;;;;9.73;9.43;;;10.10;99.90;;;;;;6225942;23;20211;-85
2023/01/15 04:56:30;;;;;;;9.60;9.30;;;10.10;99.90;;;;;;6226583;22;20220;-85
2023/01/15 04:59:01;;;;;;;9.57;9.27;;;10.20;99.90;;;;;;6225945;23;20246;-86
2023/01/15 05:01:29;;;;;;;9.50;9.20;;;10.10;99.90;;;;;;6226217;23;20630;-84
2023/01/15 05:04:07;;;;;;;9.20;8.90;;;10.10;99.90;;;;;;6226323;23;20191;-84
2023/01/15 05:06:36;;;;;;;9.70;9.40;;;10.10;99.90;;;;;;6226800;23;20195;-83
2023/01/15 05:09:05;;;;;;;9.67;9.37;;;10.10;99.90;;;;;;6226534;23;20213;-84
2023/01/15 05:11:35;;;;;;;10.00;9.70;;;10.10;99.90;;;;;;6227054;23;20254;-84
2023/01/15 05:14:07;;;;;;;9.47;9.17;;;10.20;99.90;;;;;;6226940;23;20230;-84
2023/01/15 05:16:37;;;;;;;9.70;9.40;;;10.20;99.90;;;;;;6225864;23;20198;-84
2023/01/15 05:19:16;;;;;;;9.60;9.30;;;10.20;99.90;;;;;;6225049;23;20222;-83
2023/01/15 05:21:45;;;;;;;9.90;9.60;;;10.20;99.90;;;;;;6225968;23;20205;-84
2023/01/15 05:24:21;;;;;;;9.57;9.27;;;10.20;99.90;;;;;;6225674;22;20199;-84
2023/01/15 05:26:52;;;;;;;9.90;9.60;;;10.20;99.90;;;;;;6225874;23;20183;-84
2023/01/15 05:29:20;;;;;;;9.90;9.60;;;10.20;99.90;;;;;;6226637;23;20313;-84
2023/01/15 05:31:50;;;;;;;9.90;9.60;;;10.30;99.90;;;;;;6226704;23;20195;-84
2023/01/15 05:34:31;;;;;;;9.70;9.40;;;10.30;99.90;;;;;;6225610;22;20187;-84
2023/01/15 05:36:58;;;;;;;9.80;9.50;;;10.30;99.90;;;;;;6225518;23;20230;-84
2023/01/15 05:39:28;;;;;;;9.80;9.50;;;10.30;99.90;;;;;;6225469;23;20263;-84
2023/01/15 05:41:56;;;;;;;9.93;9.63;;;10.40;99.90;;;;;;6225616;23;20191;-84
2023/01/15 05:44:28;;;;;;;10.10;9.80;;;10.40;99.90;;;;;;6225473;22;20222;-83
2023/01/15 05:47:06;;;;;;;9.63;9.33;;;10.40;99.90;;;;;;6226567;23;20199;-84
2023/01/15 05:49:35;;;;;;;9.93;9.63;;;10.40;99.90;;;;;;6233328;23;20275;-85
2023/01/15 05:52:04;;;;;;;10.00;9.70;;;10.40;99.90;;;;;;6235734;22;20179;-84
2023/01/15 05:54:40;;;;;;;10.10;9.80;;;10.50;99.90;;;;;;6251291;22;20202;-79
2023/01/15 05:57:14;;;;;;;10.20;9.90;;;10.50;99.90;;;;;;6250829;22;20190;-82
2023/01/15 05:59:41;;;;;;;10.20;9.90;;;10.50;99.90;;;;;;6247645;22;20175;-83
2023/01/15 06:02:09;;;;;;;9.97;9.67;;;10.50;99.90;;;;;;6231477;23;20206;-84
2023/01/15 06:04:46;;;;;;;9.80;9.50;;;10.50;99.90;;;;;;6234649;22;20218;-82
2023/01/15 06:07:18;;;;;;;9.70;9.40;;;10.50;99.90;;;;;;6232841;23;20198;-83
2023/01/15 06:09:46;;;;;;;9.50;9.20;;;10.50;99.90;;;;;;6228593;23;20218;-83
2023/01/15 06:12:15;;;;;;;9.57;9.27;;;10.50;99.90;;;;;;6229538;23;20210;-82
2023/01/15 06:14:43;;;;;;;9.67;9.37;;;10.50;99.90;;;;;;6232619;22;20202;-82
2023/01/15 06:17:15;;;;;;;10.00;9.70;;;10.40;99.90;;;;;;6230001;23;20195;-84
2023/01/15 06:22:31;;;;;;;9.60;9.30;;;10.30;99.90;;;;;;6230930;23;20222;-83
2023/01/15 06:25:00;;;;;;;9.47;9.17;;;10.20;99.90;;;;;;6230278;22;20205;-84
2023/01/15 06:27:30;;;;;;;9.37;9.07;;;10.10;99.90;;;;;;6229242;23;20218;-85
2023/01/15 06:30:02;;;;;;;9.10;8.80;;;10.10;99.90;;;;;;6228495;23;20227;-84
2023/01/15 06:32:29;;;;;;;8.40;8.20;;;9.90;99.90;;;;;;6241505;22;20193;-82
2023/01/15 06:35:00;;;;;;;8.63;8.40;;;9.60;99.90;;;;;;6243680;22;20207;-83
2023/01/15 06:37:33;;;;;;;8.60;8.40;;;9.40;99.90;;;;;;6230409;23;20257;-84
2023/01/15 06:40:00;;;;;;;8.73;8.43;;;9.20;99.90;;;;;;6228214;23;20195;-85
2023/01/15 06:47:59;;;;;;;8.80;8.50;;;9.00;99.90;;;;;;6227123;22;20254;-82
2023/01/15 06:50:28;;;;;;;8.60;8.40;;;8.70;99.90;;;;;;6232303;23;20194;-81
2023/01/15 06:52:57;;;;;;;8.60;8.40;;;8.50;99.90;;;;;;6230998;23;20285;-83
2023/01/15 06:55:24;;;;;;;8.57;8.37;;;8.40;99.90;;;;;;6230967;23;20203;-80
2023/01/15 06:57:52;;;;;;;8.53;8.30;;;8.40;99.90;;;;;;6231874;22;20265;-80
2023/01/15 07:00:20;;;;;;;8.50;8.23;;;8.30;99.90;;;;;;6231479;23;20269;-78
2023/01/15 07:02:48;;;;;;;8.47;8.27;;;8.20;99.90;;;;;;6233427;23;20187;-80
2023/01/15 07:05:16;;;;;;;8.80;8.50;;;8.10;99.90;;;;;;6235007;23;20225;-79
2023/01/15 07:07:45;;;;;;;8.70;8.40;;;7.90;99.90;;;;;;6235623;22;20203;-79
2023/01/15 07:10:13;;;;;;;8.50;8.30;;;7.80;99.90;;;;;;6233983;23;20294;-79
2023/01/15 07:12:40;;;;;;;8.80;8.60;;;7.70;99.90;;;;;;6230085;23;20722;-80
2023/01/15 07:15:09;;;;;;;8.70;8.40;;;7.70;99.90;;;;;;6228862;23;20195;-79
2023/01/15 07:17:37;;;;;;;8.63;8.33;;;7.60;99.90;;;;;;6229503;22;20199;-79
2023/01/15 07:20:06;;;;;;;8.63;8.33;;;7.60;99.90;;;;;;6228341;23;20238;-78
2023/01/15 07:22:34;;;;;;;8.73;8.43;;;7.50;99.90;;;;;;6229171;23;20199;-79
2023/01/15 07:25:03;;;;;;;8.47;8.27;;;7.50;99.90;;;;;;6228271;23;20239;-81
2023/01/15 07:27:31;;;;;;;8.60;8.40;;;7.30;99.90;;;;;;6228509;22;20202;-80
2023/01/15 07:29:58;;;;;;;8.80;8.60;;;7.20;99.90;;;;;;6231840;23;20226;-80
2023/01/15 07:32:26;;;;;;;9.00;8.70;;;7.20;99.90;;;;;;6238511;23;20534;-79
2023/01/15 07:34:53;;;;;;;9.00;8.70;;;7.10;99.90;;;;;;6240308;23;20198;-80
2023/01/15 07:37:21;;;;;;;9.00;8.70;;;7.10;99.90;;;;;;6238017;22;20210;-79
2023/01/15 07:39:48;;;;;;;8.90;8.60;;;7.00;99.90;;;;;;6234687;23;20241;-81
2023/01/15 07:50:35;;;;;;;8.40;8.20;;;6.80;99.90;;;;;;6243374;23;20171;-79
2023/01/15 07:53:02;;;;;;;8.50;8.30;;;6.70;99.90;;;;;;6240597;23;20367;-78
2023/01/15 07:55:30;;;;;;;8.40;8.20;;;6.70;99.90;;;;;;6238537;23;20250;-79
2023/01/15 07:57:59;;;;;;;8.40;8.20;;;6.70;99.90;;;;;;6239631;22;20255;-79
2023/01/15 08:00:28;;;;;;;8.40;8.20;;;6.70;99.90;;;;;;6251334;22;20178;-78
2023/01/15 08:02:55;;;;;;;8.30;8.10;;;6.60;99.90;;;;;;6251379;22;20255;-78
2023/01/15 08:05:23;;;;;;;8.20;8.00;;;6.50;99.90;;;;;;6251757;22;20195;-76
2023/01/15 08:07:50;;;;;;;8.23;8.03;;;6.50;99.90;;;;;;6251284;22;20210;-78
2023/01/15 08:10:21;;;;;;;8.30;8.10;;;6.50;99.90;;;;;;6251572;22;20210;-79
2023/01/15 08:15:42;;;;;;;8.30;8.10;;;6.40;99.90;;;;;;6250346;22;20171;-78
2023/01/15 08:18:10;;;;;;;8.20;8.00;;;6.40;99.90;;;;;;6248498;22;20220;-77
2023/01/15 08:20:38;;;;;;;8.20;8.00;;;6.40;99.90;;;;;;6249650;22;20195;-76
2023/01/15 08:23:06;;;;;;;8.30;8.10;;;6.20;99.90;;;;;;6250513;22;20195;-78
2023/01/15 08:25:33;;;;;;;8.30;8.10;;;6.10;99.90;;;;;;6248806;22;20191;-77
2023/01/15 08:28:02;;;;;;;8.60;8.40;;;5.90;99.90;;;;;;6247779;22;20363;-78
2023/01/15 08:30:30;;;;;;;8.30;8.10;;;5.80;99.90;;;;;;6247267;23;20363;-79
2023/01/15 08:33:02;;;;;;;8.30;8.10;;;5.80;99.90;;;;;;6246664;22;20186;-79
2023/01/15 08:35:29;;;;;;;8.30;8.10;;;5.70;99.90;;;;;;6242403;23;20238;-78
2023/01/15 08:37:57;;;;;;;8.30;8.10;;;5.80;99.90;;;;;;6239514;22;20282;-79
2023/01/15 08:40:24;;;;;;;8.30;8.10;;;5.80;99.90;;;;;;6235884;23;20263;-79
2023/01/15 08:42:52;;;;;;;8.40;8.20;;;5.70;99.90;;;;;;6241074;23;20203;-79
2023/01/15 08:45:19;;;;;;;8.40;8.20;;;5.60;99.90;;;;;;6233380;23;20191;-79
2023/01/15 08:47:47;;;;;;;8.63;8.43;;;5.60;99.90;;;;;;6230675;22;20294;-79
2023/01/15 08:50:16;;;;;;;8.47;8.27;;;5.50;99.90;;;;;;6233033;23;20211;-79
2023/01/15 08:52:44;;;;;;;8.37;8.17;;;5.60;99.90;;;;;;6236047;23;20199;-78
2023/01/15 08:55:11;;;;;;;8.40;8.20;;;5.60;99.90;;;;;;6239008;23;20195;-79
2023/01/15 08:57:39;;;;;;;8.30;8.10;;;5.40;99.90;;;;;;6235462;22;20250;-78
2023/01/15 09:00:08;;;;;;;8.30;8.10;;;5.40;99.90;;;;;;6240525;23;20246;-78
2023/01/15 09:02:36;;;;;;;8.23;8.03;;;5.40;99.90;;;;;;6243908;23;20199;-79
2023/01/15 09:05:04;;;;;;;8.33;8.13;;;5.40;99.90;;;;;;6236665;23;20243;-79
2023/01/15 09:07:34;;;;;;;8.50;8.30;;;5.30;99.90;;;;;;6238864;22;20226;-80
2023/01/15 09:10:01;;;;;;;8.60;8.40;;;5.30;99.90;;;;;;6237955;23;20229;-78
2023/01/15 09:12:29;;;;;;;8.57;8.37;;;5.20;99.90;;;;;;6245927;22;20285;-78
2023/01/15 09:15:00;;;;;;;8.60;8.40;;;5.20;99.90;;;;;;6250015;22;20187;-79
2023/01/15 09:17:28;;;;;;;8.63;8.43;;;5.30;99.90;;;;;;6249992;22;20187;-80
2023/01/15 09:19:56;;;;;;;8.60;8.40;;;5.30;99.90;;;;;;6248731;22;20199;-77
2023/01/15 09:22:24;;;;;;;8.60;8.40;;;5.40;99.90;;;;;;6249831;22;20182;-77
2023/01/15 09:24:57;;;;;;;8.63;8.43;;;5.40;99.90;;;;;;6249503;22;20202;-77
2023/01/15 09:27:25;;;;;;;8.60;8.40;;;5.40;99.90;;;;;;6249646;22;20213;-78
2023/01/15 09:29:53;;;;;;;8.50;8.30;;;5.40;99.90;;;;;;6249402;22;20191;-76
2023/01/15 09:32:20;;;;;;;8.63;8.43;;;5.40;99.90;;;;;;6249686;22;20183;-77
2023/01/15 09:34:50;;;;;;;8.90;8.60;;;5.40;99.90;;;;;;6248760;22;20214;-77
2023/01/15 09:37:18;;;;;;;8.60;8.40;;;5.40;99.90;;;;;;6248950;22;20210;-78
2023/01/15 09:39:46;;;;;;;8.60;8.40;;;5.40;99.90;;;;;;6249460;22;20183;-77
2023/01/15 09:42:31;;;;;;;8.50;8.30;;;5.50;99.90;;;;;;6245175;22;20187;-77
2023/01/15 09:45:25;;;;;;;8.47;8.27;;;5.60;99.90;;;;;;6236670;23;20206;-78
2023/01/15 09:48:19;;;;;;;8.43;8.23;;;5.50;99.90;;;;;;6233899;22;20217;-78
2023/01/15 09:51:02;;;;;;;8.50;8.30;;;5.40;99.90;;;;;;6233044;23;20195;-80
2023/01/15 09:53:53;;;;;;;8.33;8.13;;;5.50;99.90;;;;;;6230419;23;20258;-78
2023/01/15 09:56:23;;;;;;;8.63;8.43;;;5.60;99.90;;;;;;6229880;22;20191;-78
2023/01/15 09:58:54;;;;;;;8.40;8.20;;;5.70;99.90;;;;;;6229791;23;20195;-78
2023/01/15 10:01:27;;;;;;;8.37;8.17;;;5.80;99.90;;;;;;6228187;23;20226;-78
2023/01/15 10:04:02;;;;;;;8.33;8.13;;;5.70;99.90;;;;;;6228424;23;20201;-78
2023/01/15 10:06:35;;;;;;;8.40;8.20;;;5.80;99.90;;;;;;6228785;22;20207;-78
2023/01/15 10:09:11;;;;;;;8.47;8.27;;;5.80;99.90;;;;;;6227646;23;20187;-78
2023/01/15 10:14:43;;;;;;;8.20;8.00;;;5.90;99.90;;;;;;6228390;23;20190;-78
2023/01/15 10:17:26;;;;;;;8.40;8.20;;;5.80;99.90;;;;;;6228896;22;20209;-79
2023/01/15 10:19:54;;;;;;;8.60;8.40;;;5.70;99.90;;;;;;6228754;23;20195;-79
2023/01/15 10:22:42;;;;;;;8.57;8.37;;;5.70;99.90;;;;;;6229523;23;20207;-79
2023/01/15 10:25:16;;;;;;;8.47;8.27;;;5.70;99.90;;;;;;6230170;23;20194;-79
2023/01/15 10:27:47;;;;;;;8.50;8.30;;;5.80;99.90;;;;;;6229806;22;20218;-78
2023/01/15 10:30:30;;;;;;;8.60;8.40;;;5.80;99.90;;;;;;6227742;23;20257;-79
2023/01/15 10:32:58;;;;;;;8.70;8.50;;;5.70;99.90;;;;;;6228251;23;20199;-78
2023/01/15 10:35:37;;;;;;;8.60;8.40;;;5.60;99.90;;;;;;6226494;23;20211;-80
2023/01/15 10:38:14;;;;;;;8.50;8.30;;;5.50;99.90;;;;;;6229022;22;20252;-78
2023/01/15 10:41:18;;;;;;;8.60;8.40;;;5.40;99.90;;;;;;6228847;23;20194;-77
2023/01/15 10:43:52;;;;;;;8.87;8.60;;;5.40;99.90;;;;;;6230421;23;20210;-80
2023/01/15 10:46:27;;;;;;;8.50;8.30;;;5.40;99.90;;;;;;6231845;22;20262;-79
2023/01/15 10:48:59;;;;;;;9.00;8.70;;;5.50;99.90;;;;;;6229692;23;20986;-79
2023/01/15 10:51:45;;;;;;;8.63;8.43;;;5.40;99.90;;;;;;6233909;23;20229;-80
2023/01/15 10:54:24;;;;;;;8.60;8.40;;;5.60;99.90;;;;;;6232048;23;20194;-79
2023/01/15 10:57:00;;;;;;;8.70;8.50;;;5.70;99.90;;;;;;6229823;22;20213;-77
2023/01/15 10:59:39;;;;;;;8.60;8.40;;;5.80;99.90;;;;;;6233183;23;20223;-78
2023/01/15 11:02:26;;;;;;;8.70;8.50;;;5.90;99.90;;;;;;6232097;23;20281;-77
2023/01/15 11:04:55;;;;;;;8.50;8.30;;;6.00;99.90;;;;;;6233937;23;20191;-78
2023/01/15 11:07:27;;;;;;;8.33;8.13;;;6.10;99.90;;;;;;6233727;22;20209;-78
2023/01/15 11:09:55;;;;;;;8.43;8.23;;;6.10;99.90;;;;;;6233040;23;20281;-78
2023/01/15 11:21:01;;;;;;;8.60;8.40;;;6.00;99.90;;;;;;6236699;23;20191;-79
2023/01/15 11:23:35;;;;;;;8.40;8.20;;;6.00;99.90;;;;;;6232775;23;20190;-78
2023/01/15 11:26:04;;;;;;;8.40;8.20;;;6.00;99.90;;;;;;6231642;22;20266;-78
2023/01/15 11:28:39;;;;;;;8.53;8.33;;;5.90;99.90;;;;;;6236677;23;20207;-77
2023/01/15 11:31:07;;;;;;;8.53;8.33;;;5.80;99.90;;;;;;6238334;23;20273;-79
2023/01/15 11:33:37;;;;;;;8.57;8.37;;;5.70;99.90;;;;;;6238602;23;20238;-79
2023/01/15 11:36:23;;;;;;;8.60;8.40;;;5.80;99.90;;;;;;6235753;22;20203;-78
2023/01/15 11:38:52;;;;;;;8.63;8.43;;;5.70;99.90;;;;;;6233698;23;20190;-78
2023/01/15 11:50:42;;;;;;;8.50;8.30;;;5.70;99.90;;;;;;6229999;23;20199;-78
2023/01/15 11:52:42;;;;;;;8.70;8.50;;;5.90;99.90;;;;;;6233670;23;20239;-78
2023/01/15 11:55:13;;;;;;;8.40;8.20;;;5.90;99.90;;;;;;6233181;23;20202;-78
2023/01/15 11:57:42;;;;;;;8.40;8.20;;;6.00;99.90;;;;;;6230216;22;20215;-77
2023/01/15 12:00:22;;;;;;;8.60;8.40;;;6.00;99.90;;;;;;6233688;23;20199;-80
2023/01/15 12:02:52;;;;;;;8.67;8.47;;;6.00;99.90;;;;;;6234681;23;20193;-79
2023/01/15 12:05:25;;;;;;;8.73;8.53;;;6.00;99.90;;;;;;6231102;23;20203;-79
2023/01/15 12:07:56;;;;;;;8.67;8.47;;;6.00;99.90;;;;;;6231889;22;20207;-82
2023/01/15 12:13:20;;;;;;;9.00;8.70;;;5.90;99.90;;;;;;6233535;23;20274;-79
2023/01/15 12:15:57;;;;;;;8.80;8.60;;;5.90;99.90;;;;;;6235875;23;20229;-79
2023/01/15 12:18:55;;;;;;;8.60;8.40;;;5.90;99.90;;;;;;6238815;22;20191;-79
2023/01/15 12:22:02;;;;;;;8.57;8.37;;;5.90;99.90;;;;;;6238412;23;20195;-79
2023/01/15 12:25:17;;;;;;;8.60;8.40;;;5.80;99.90;;;;;;6238056;23;20225;-78
2023/01/15 12:27:55;;;;;;;8.50;8.30;;;5.80;99.90;;;;;;6210573;22;20251;-79
2023/01/15 12:30:37;;;;;;;8.60;8.40;;;5.70;99.90;;;;;;6232777;23;20190;-79
2023/01/15 12:33:20;;;;;;;8.70;8.50;;;5.70;99.90;;;;;;6236601;23;20282;-79
2023/01/15 12:35:56;;;;;;;8.77;8.57;;;5.60;99.90;;;;;;6232970;23;20273;-77
2023/01/15 12:38:41;;;;;;;9.00;8.70;;;5.60;99.90;;;;;;6234068;22;20214;-78
2023/01/15 12:41:13;;;;;;;8.80;8.60;;;5.50;99.90;;;;;;6231656;23;20286;-78
2023/01/15 12:46:32;;;;;;;8.80;8.60;;;5.40;99.90;;;;;;6232028;22;20194;-78
2023/01/15 12:49:09;;;;;;;8.70;8.50;;;5.40;99.90;;;;;;6232312;23;20282;-78
2023/01/15 12:51:48;;;;;;;8.60;8.40;;;5.40;99.90;;;;;;6230184;23;20193;-78
2023/01/15 12:54:25;;;;;;;8.70;8.50;;;5.30;99.90;;;;;;6236490;23;20203;-79
2023/01/15 12:57:00;;;;;;;8.80;8.60;;;5.30;99.90;;;;;;6231976;22;20230;-78
2023/01/15 12:59:35;;;;;;;8.57;8.37;;;5.30;99.90;;;;;;6232008;23;20201;-78
2023/01/15 13:02:15;;;;;;;9.30;9.00;;;5.30;99.90;;;;;;6230377;23;20195;-77
2023/01/15 13:04:50;;;;;;;9.17;8.87;;;5.20;99.90;;;;;;6230682;23;20233;-80
2023/01/15 13:07:25;;;;;;;9.30;9.00;;;5.20;99.90;;;;;;6233206;22;20198;-78
2023/01/15 13:10:06;;;;;;;9.40;9.10;;;5.10;99.90;;;;;;6232807;23;20190;-78
2023/01/15 13:12:34;;;;;;;9.40;9.10;;;5.10;99.90;;;;;;6234070;23;20183;-78
2023/01/15 13:15:03;;;;;;;9.27;8.97;;;5.00;99.90;;;;;;6233180;23;20213;-78
2023/01/15 13:17:43;;;;;;;9.23;8.93;;;5.00;99.90;;;;;;6235332;22;20199;-78
2023/01/15 13:20:28;;;;;;;9.20;8.90;;;4.90;99.90;;;;;;6236155;23;20194;-79
2023/01/15 13:23:07;;;;;;;9.40;9.10;;;4.60;99.90;;;;;;6233588;23;20226;-79
2023/01/15 13:25:52;;;;;;;9.57;9.27;;;4.10;99.90;;;;;;6234760;23;20282;-79
2023/01/15 13:28:44;;;;;;;9.40;9.10;;;4.10;99.90;;;;;;6234767;22;20199;-79
2023/01/15 13:31:32;;;;;;;9.57;9.27;;;3.90;99.90;;;;;;6233594;23;20249;-79
2023/01/15 13:34:07;;;;;;;9.33;9.03;;;3.90;99.90;;;;;;6234243;23;20202;-78
2023/01/15 13:36:42;;;;;;;9.40;9.10;;;3.80;99.90;;;;;;6235546;22;20206;-79
2023/01/15 13:39:25;;;;;;;9.50;9.20;;;3.80;99.90;;;;;;6240227;23;20226;-80
2023/01/15 13:44:48;;;;;;;9.00;8.70;;;3.70;99.90;;;;;;6238308;23;20175;-81
2023/01/15 13:47:23;;;;;;;9.10;8.80;;;3.80;99.90;;;;;;6239341;22;20202;-81
2023/01/15 13:49:54;;;;;;;9.20;8.90;;;3.80;99.90;;;;;;6237680;23;20195;-81
2023/01/15 13:52:26;;;;;;;9.00;8.70;;;3.90;99.90;;;;;;6238032;23;20187;-80
2023/01/15 13:54:58;;;;;;;9.10;8.80;;;3.90;99.90;;;;;;6236720;23;20211;-80
2023/01/15 13:57:34;;;;;;;9.07;8.77;;;4.00;99.90;;;;;;6237308;22;20278;-78
2023/01/15 14:00:04;;;;;;;9.30;9.00;;;4.00;99.90;;;;;;6237380;23;20202;-78
2023/01/15 14:02:34;;;;;;;9.30;9.00;;;4.10;99.90;;;;;;6236933;23;20226;-79
2023/01/15 14:05:27;;;;;;;9.27;8.97;;;4.10;99.90;;;;;;6236310;23;20190;-80
2023/01/15 14:07:55;;;;;;;9.10;8.80;;;4.30;99.90;;;;;;6234495;22;20203;-80
2023/01/15 14:10:37;;;;;;;9.23;8.93;;;4.30;99.90;;;;;;6234994;23;20254;-78
2023/01/15 14:13:46;;;;;;;9.20;8.90;;;4.30;99.90;;;;;;6233351;23;20194;-78
2023/01/15 14:16:28;;;;;;;8.50;8.30;;;4.40;99.90;;;;;;6230878;22;20202;-77
2023/01/15 14:19:18;;;;;;;8.97;8.67;;;4.40;99.90;;;;;;6235127;23;20206;-79
2023/01/15 14:21:58;;;;;;;8.80;8.50;;;4.40;99.90;;;;;;6234128;23;20195;-79
2023/01/15 14:24:56;;;;;;;9.00;8.70;;;4.40;99.90;;;;;;6233972;23;21070;-79
2023/01/15 14:27:51;;;;;;;9.10;8.80;;;4.40;99.90;;;;;;6236092;22;20210;-78
2023/01/15 14:31:05;;;;;;;9.40;9.10;;;4.50;99.90;;;;;;6236005;23;20197;-78
2023/01/15 14:33:46;;;;;;;9.43;9.13;;;4.60;99.90;;;;;;6235171;23;20214;-78
2023/01/15 14:36:20;;;;;;;9.30;9.00;;;4.60;99.90;;;;;;6235073;22;20209;-78
2023/01/15 14:38:52;;;;;;;8.90;8.70;;;4.60;99.90;;;;;;6237085;23;20250;-81
2023/01/15 14:41:28;;;;;;;9.20;8.90;;;4.60;99.90;;;;;;6237240;23;20210;-79
2023/01/15 14:43:55;;;;;;;9.00;8.70;;;4.60;99.90;;;;;;6237376;23;20282;-81
2023/01/15 14:46:29;;;;;;;8.90;8.60;;;4.60;99.90;;;;;;6235872;22;20217;-81
2023/01/15 14:48:57;;;;;;;9.00;8.70;;;4.60;99.90;;;;;;6239106;23;20195;-79
2023/01/15 14:51:28;;;;;;;8.90;8.60;;;4.70;99.90;;;;;;6235289;23;20206;-78
2023/01/15 14:53:59;;;;;;;9.30;9.00;;;4.60;99.90;;;;;;6238855;23;20194;-81
2023/01/15 14:56:32;;;;;;;9.30;9.00;;;4.60;99.90;;;;;;6238663;22;20214;-81